createdAt,value
2022-08-17T00:00:43.244Z,14.07
2022-08-17T00:03:13.669Z,11.30
2022-08-17T00:05:49.397Z,10.30
2022-08-17T00:08:19.527Z,9.90
2022-08-17T00:10:47.799Z,12.68
2022-08-17T00:13:25.892Z,14.38
2022-08-17T00:15:58.909Z,12.48
2022-08-17T00:19:01.662Z,13.77
2022-08-17T00:21:23.859Z,11.82
2022-08-17T00:23:53.622Z,11.77
2022-08-17T00:26:43.999Z,11.07
2022-08-17T00:29:09.881Z,14.40
2022-08-17T00:31:47.241Z,14.60
2022-08-17T00:34:14.566Z,11.35
2022-08-17T00:36:41.823Z,11.85
2022-08-17T00:39:09.102Z,11.88
2022-08-17T00:41:36.501Z,14.10
2022-08-17T00:44:10.294Z,10.80
2022-08-17T00:46:44.572Z,12.20
2022-08-17T00:49:13.650Z,10.63
2022-08-17T00:51:44.000Z,11.32
2022-08-17T00:54:33.579Z,10.88
2022-08-17T00:57:15.536Z,11.88
2022-08-17T00:59:51.092Z,11.30
2022-08-17T01:02:30.503Z,11.20
2022-08-17T01:05:02.022Z,13.20
2022-08-17T01:07:29.279Z,11.55
2022-08-17T01:09:56.811Z,13.80
2022-08-17T01:12:24.129Z,11.38
2022-08-17T01:14:51.481Z,12.18
2022-08-17T01:17:18.869Z,12.88
2022-08-17T01:19:46.277Z,14.80
2022-08-17T01:22:14.549Z,11.57
2022-08-17T01:24:45.203Z,11.50
2022-08-17T01:27:14.029Z,12.75
2022-08-17T01:29:44.932Z,14.68
2022-08-17T01:32:12.935Z,12.73
2022-08-17T01:34:43.322Z,13.50
2022-08-17T01:37:18.269Z,14.13
2022-08-17T01:39:58.185Z,13.30
2022-08-17T01:42:56.432Z,14.98
2022-08-17T01:45:27.049Z,14.90
2022-08-17T01:47:55.689Z,11.45
2022-08-17T01:50:27.669Z,11.48
2022-08-17T01:53:00.209Z,13.60
2022-08-17T01:55:37.210Z,11.40
2022-08-17T01:58:09.161Z,13.18
2022-08-17T02:00:46.774Z,11.65
2022-08-17T02:03:27.755Z,13.27
2022-08-17T02:05:55.349Z,11.30
2022-08-17T02:08:38.934Z,10.85
2022-08-17T02:11:14.919Z,11.88
2022-08-17T02:13:46.647Z,13.52
2022-08-17T02:16:15.357Z,12.85
2022-08-17T02:18:42.949Z,11.75
2022-08-17T02:21:11.402Z,10.18
2022-08-17T02:23:43.971Z,11.63
2022-08-17T02:26:24.049Z,9.90
2022-08-17T02:28:54.233Z,11.40
2022-08-17T02:31:21.676Z,10.57
2022-08-17T02:33:56.599Z,10.35
2022-08-17T02:36:33.010Z,10.98
2022-08-17T02:39:07.993Z,10.15
2022-08-17T02:41:35.830Z,10.40
2022-08-17T02:44:03.491Z,11.40
2022-08-17T02:46:31.338Z,10.45
2022-08-17T02:48:59.603Z,11.70
2022-08-17T02:51:27.994Z,11.68
2022-08-17T02:54:38.799Z,12.07
2022-08-17T02:56:43.355Z,10.80
2022-08-17T02:59:10.853Z,11.05
2022-08-17T03:01:38.819Z,10.00
2022-08-17T03:04:06.162Z,11.43
2022-08-17T03:06:33.487Z,12.65
2022-08-17T03:09:00.860Z,11.63
2022-08-17T03:11:28.304Z,10.98
2022-08-17T03:13:55.798Z,9.85
2022-08-17T03:16:23.327Z,11.68
2022-08-17T03:18:50.864Z,10.60
2022-08-17T03:21:18.145Z,11.27
2022-08-17T03:23:45.519Z,10.23
2022-08-17T03:26:15.477Z,11.20
2022-08-17T03:28:43.663Z,10.38
2022-08-17T03:31:10.977Z,12.90
2022-08-17T03:33:38.349Z,10.55
2022-08-17T03:36:06.101Z,11.13
2022-08-17T03:38:38.977Z,12.18
2022-08-17T03:41:07.376Z,10.80
2022-08-17T03:43:35.423Z,11.48
2022-08-17T03:46:34.229Z,11.57
2022-08-17T03:49:26.493Z,10.73
2022-08-17T03:52:13.533Z,12.88
2022-08-17T03:55:00.749Z,10.98
2022-08-17T03:57:28.158Z,16.55
2022-08-17T03:59:56.246Z,11.63
2022-08-17T04:02:32.237Z,15.70
2022-08-17T04:05:00.572Z,10.15
2022-08-17T04:07:31.165Z,10.27
2022-08-17T04:09:59.721Z,9.73
2022-08-17T04:12:31.219Z,10.13
2022-08-17T04:14:59.316Z,11.10
2022-08-17T04:17:28.716Z,11.50
2022-08-17T04:19:56.773Z,15.35
2022-08-17T04:22:32.233Z,10.70
2022-08-17T04:25:21.511Z,11.10
2022-08-17T04:27:49.130Z,10.75
2022-08-17T04:30:16.521Z,10.43
2022-08-17T04:33:07.248Z,12.98
2022-08-17T04:35:48.025Z,7.95
2022-08-17T04:38:22.814Z,8.20
2022-08-17T04:41:09.286Z,10.70
2022-08-17T04:43:38.963Z,8.52
2022-08-17T04:46:10.434Z,9.43
2022-08-17T04:48:41.387Z,9.63
2022-08-17T04:51:12.524Z,11.13
2022-08-17T04:53:42.304Z,11.20
2022-08-17T04:56:15.987Z,11.50
2022-08-17T04:58:46.842Z,11.93
2022-08-17T05:01:15.558Z,14.55
2022-08-17T05:03:44.229Z,13.13
2022-08-17T05:06:11.870Z,11.82
2022-08-17T05:08:39.389Z,9.82
2022-08-17T05:11:06.913Z,10.57
2022-08-17T05:13:34.271Z,10.68
2022-08-17T05:16:05.749Z,10.10
2022-08-17T05:18:33.516Z,10.48
2022-08-17T05:21:01.002Z,15.40
2022-08-17T05:23:42.025Z,13.38
2022-08-17T05:26:25.805Z,16.58
2022-08-17T05:28:55.502Z,18.63
2022-08-17T05:31:24.994Z,18.83
2022-08-17T05:33:53.537Z,13.27
2022-08-17T05:36:43.093Z,10.48
2022-08-17T05:39:08.391Z,10.32
2022-08-17T05:41:42.929Z,8.38
2022-08-17T05:44:10.776Z,14.45
2022-08-17T05:46:42.251Z,8.98
2022-08-17T05:49:10.255Z,8.50
2022-08-17T05:52:13.355Z,8.00
2022-08-17T05:55:37.203Z,7.72
2022-08-17T05:58:10.311Z,9.45
2022-08-17T06:00:51.934Z,7.20
2022-08-17T06:03:37.931Z,7.78
2022-08-17T06:06:42.475Z,9.10
2022-08-17T06:09:26.646Z,8.27
2022-08-17T06:12:24.931Z,13.13
2022-08-17T06:15:11.115Z,11.60
2022-08-17T06:17:39.350Z,11.57
2022-08-17T06:20:12.008Z,12.55
2022-08-17T06:22:46.582Z,7.55
2022-08-17T06:25:35.250Z,7.53
2022-08-17T06:28:08.999Z,9.45
2022-08-17T06:31:07.388Z,7.75
2022-08-17T06:33:39.665Z,7.30
2022-08-17T06:36:36.202Z,8.30
2022-08-17T06:39:18.689Z,7.53
2022-08-17T06:41:49.841Z,10.90
2022-08-17T06:44:43.708Z,8.52
2022-08-17T06:47:33.850Z,7.30
2022-08-17T06:50:08.523Z,10.63
2022-08-17T06:52:47.496Z,7.88
2022-08-17T06:55:26.501Z,8.55
2022-08-17T06:57:59.441Z,7.38
2022-08-17T07:00:40.986Z,7.25
2022-08-17T07:03:38.166Z,7.97
2022-08-17T07:06:14.692Z,7.40
2022-08-17T07:08:51.115Z,10.70
2022-08-17T07:11:51.276Z,14.63
2022-08-17T07:14:53.356Z,8.70
2022-08-17T07:17:46.372Z,11.70
2022-08-17T07:20:15.386Z,7.43
2022-08-17T07:23:13.935Z,9.32
2022-08-17T07:25:41.324Z,11.68
2022-08-17T07:28:08.652Z,8.48
2022-08-17T07:30:51.592Z,8.85
2022-08-17T07:33:28.992Z,9.32
2022-08-17T07:35:58.777Z,15.20
2022-08-17T07:38:34.777Z,8.98
2022-08-17T07:41:06.538Z,9.50
2022-08-17T07:43:40.194Z,11.15
2022-08-17T07:46:41.950Z,8.23
2022-08-17T07:49:14.938Z,10.43
2022-08-17T07:51:47.933Z,9.95
2022-08-17T07:54:22.743Z,10.60
2022-08-17T07:56:54.944Z,9.15
2022-08-17T07:59:28.609Z,12.27
2022-08-17T08:02:04.017Z,10.38
2022-08-17T08:07:32.283Z,20.65
2022-08-17T08:10:01.630Z,9.50
2022-08-17T08:12:44.504Z,8.80
2022-08-17T08:15:18.963Z,9.23
2022-08-17T08:17:58.819Z,11.90
2022-08-17T08:21:00.692Z,11.18
2022-08-17T08:23:59.875Z,9.13
2022-08-17T08:26:48.287Z,14.55
2022-08-17T08:29:40.232Z,9.68
2022-08-17T08:32:20.782Z,7.18
2022-08-17T08:35:08.717Z,9.57
2022-08-17T08:37:56.450Z,7.57
2022-08-17T08:40:46.759Z,6.13
2022-08-17T08:43:25.037Z,9.73
2022-08-17T08:46:25.601Z,8.35
2022-08-17T08:49:10.239Z,5.88
2022-08-17T08:51:51.609Z,8.43
2022-08-17T08:54:52.408Z,8.20
2022-08-17T08:57:53.801Z,6.05
2022-08-17T09:00:24.187Z,8.05
2022-08-17T09:03:20.313Z,5.18
2022-08-17T09:06:37.399Z,8.48
2022-08-17T09:09:42.378Z,6.28
2022-08-17T09:12:20.340Z,5.55
2022-08-17T09:14:56.690Z,8.15
2022-08-17T09:19:02.231Z,8.30
2022-08-17T09:21:18.082Z,7.22
2022-08-17T09:24:20.660Z,5.90
2022-08-17T09:27:03.204Z,5.32
2022-08-17T09:29:35.505Z,5.70
2022-08-17T09:32:12.991Z,6.47
2022-08-17T09:34:55.092Z,8.63
2022-08-17T09:37:43.275Z,5.38
2022-08-17T09:40:15.213Z,6.00
2022-08-17T09:43:04.777Z,7.85
2022-08-17T09:45:51.643Z,5.45
2022-08-17T09:48:31.413Z,10.05
2022-08-17T09:51:18.844Z,5.25
2022-08-17T09:53:46.266Z,9.85
2022-08-17T09:56:34.943Z,6.78
2022-08-17T09:59:17.341Z,5.05
2022-08-17T10:02:26.563Z,12.90
2022-08-17T10:05:07.902Z,6.13
2022-08-17T10:07:55.906Z,10.07
2022-08-17T10:10:36.167Z,6.57
2022-08-17T10:13:18.817Z,9.88
2022-08-17T10:16:09.405Z,10.52
2022-08-17T10:19:21.135Z,11.35
2022-08-17T10:22:14.927Z,4.68
2022-08-17T10:25:21.870Z,6.60
2022-08-17T10:28:05.732Z,5.53
2022-08-17T10:30:43.808Z,6.30
2022-08-17T10:33:28.373Z,5.03
2022-08-17T10:35:58.462Z,8.93
2022-08-17T10:38:31.929Z,5.05
2022-08-17T10:41:06.176Z,5.05
2022-08-17T10:44:40.357Z,9.30
2022-08-17T10:47:12.105Z,7.43
2022-08-17T10:49:54.453Z,6.43
2022-08-17T10:52:27.700Z,7.90
2022-08-17T10:54:58.768Z,11.18
2022-08-17T10:57:42.952Z,4.03
2022-08-17T11:00:16.095Z,6.07
2022-08-17T11:02:50.674Z,6.18
2022-08-17T11:05:55.839Z,10.75
2022-08-17T11:08:43.495Z,4.43
2022-08-17T11:11:39.210Z,7.50
2022-08-17T11:14:21.683Z,4.55
2022-08-17T11:17:11.545Z,3.50
2022-08-17T11:19:45.288Z,4.57
2022-08-17T11:22:34.343Z,4.70
2022-08-17T11:25:16.271Z,4.05
2022-08-17T11:27:45.563Z,3.47
2022-08-17T11:30:21.097Z,3.67
2022-08-17T11:32:54.634Z,6.13
2022-08-17T11:35:22.549Z,4.10
2022-08-17T11:38:16.018Z,3.97
2022-08-17T11:41:05.079Z,6.30
2022-08-17T11:44:02.052Z,6.88
2022-08-17T11:47:00.495Z,5.90
2022-08-17T11:49:58.814Z,5.95
2022-08-17T11:52:45.983Z,9.77
2022-08-17T11:55:40.745Z,3.85
2022-08-17T11:58:30.031Z,4.13
2022-08-17T12:01:02.260Z,6.28
2022-08-17T12:03:32.258Z,4.25
2022-08-17T12:06:17.775Z,4.05
2022-08-17T12:08:55.159Z,5.43
2022-08-17T12:12:13.639Z,5.65
2022-08-17T12:17:41.328Z,5.13
2022-08-17T12:20:15.279Z,4.20
2022-08-17T12:23:17.687Z,5.00
2022-08-17T12:25:51.111Z,4.10
2022-08-17T12:28:30.579Z,5.28
2022-08-17T12:31:08.089Z,4.95
2022-08-17T12:33:37.843Z,5.75
2022-08-17T12:36:08.951Z,6.47
2022-08-17T12:38:38.572Z,5.35
2022-08-17T12:41:26.695Z,4.18
2022-08-17T12:44:19.540Z,4.25
2022-08-17T12:46:53.090Z,4.30
2022-08-17T12:49:30.948Z,4.38
2022-08-17T12:52:25.244Z,7.43
2022-08-17T12:55:03.335Z,4.22
2022-08-17T12:57:39.746Z,4.88
2022-08-17T13:00:17.967Z,4.10
2022-08-17T13:02:50.526Z,4.35
2022-08-17T13:05:36.379Z,10.38
2022-08-17T13:08:18.958Z,3.13
2022-08-17T13:10:57.166Z,6.25
2022-08-17T13:13:35.268Z,5.38
2022-08-17T13:16:04.768Z,5.15
2022-08-17T13:18:34.863Z,6.15
2022-08-17T13:21:02.592Z,6.00
2022-08-17T13:23:32.443Z,4.32
2022-08-17T13:26:16.164Z,3.55
2022-08-17T13:28:51.925Z,3.83
2022-08-17T13:31:28.284Z,3.78
2022-08-17T13:34:19.054Z,5.53
2022-08-17T13:36:47.960Z,4.15
2022-08-17T13:39:24.056Z,3.70
2022-08-17T13:41:54.173Z,3.78
2022-08-17T13:44:40.737Z,6.55
2022-08-17T13:47:20.179Z,5.25
2022-08-17T13:49:49.235Z,4.22
2022-08-17T13:52:52.366Z,5.68
2022-08-17T13:55:23.072Z,3.97
2022-08-17T13:58:05.070Z,3.80
2022-08-17T14:00:36.834Z,5.03
2022-08-17T14:03:05.795Z,4.28
2022-08-17T14:05:38.062Z,3.80
2022-08-17T14:08:07.216Z,6.85
2022-08-17T14:10:36.772Z,7.47
2022-08-17T14:13:05.055Z,5.03
2022-08-17T14:15:56.108Z,7.78
2022-08-17T14:18:34.272Z,3.83
2022-08-17T14:21:09.007Z,5.25
2022-08-17T14:23:37.467Z,7.80
2022-08-17T14:26:05.501Z,5.35
2022-08-17T14:28:32.840Z,3.95
2022-08-17T14:31:03.815Z,4.30
2022-08-17T14:33:31.114Z,4.07
2022-08-17T14:35:58.449Z,3.90
2022-08-17T14:38:26.098Z,4.25
2022-08-17T14:40:54.096Z,5.45
2022-08-17T14:43:21.518Z,3.58
2022-08-17T14:45:49.185Z,4.05
2022-08-17T14:48:17.414Z,5.10
2022-08-17T14:50:46.448Z,6.13
2022-08-17T14:53:16.003Z,6.10
2022-08-17T14:55:46.895Z,5.00
2022-08-17T14:58:14.640Z,7.10
2022-08-17T15:00:46.425Z,5.13
2022-08-17T15:03:14.801Z,5.68
2022-08-17T15:05:44.440Z,6.50
2022-08-17T15:08:11.792Z,6.60
2022-08-17T15:10:39.495Z,5.78
2022-08-17T15:13:20.196Z,5.03
2022-08-17T15:15:48.576Z,8.25
2022-08-17T15:18:16.564Z,5.00
2022-08-17T15:20:45.163Z,6.43
2022-08-17T15:23:16.960Z,5.80
2022-08-17T15:25:45.322Z,5.47
2022-08-17T15:28:12.837Z,5.07
2022-08-17T15:30:44.993Z,5.88
2022-08-17T15:33:17.764Z,6.25
2022-08-17T15:35:45.652Z,6.22
2022-08-17T15:38:13.639Z,4.75
2022-08-17T15:40:46.683Z,5.00
2022-08-17T15:43:20.117Z,6.40
2022-08-17T15:46:02.159Z,6.88
2022-08-17T15:48:44.023Z,5.22
2022-08-17T15:51:16.355Z,8.32
2022-08-17T15:53:46.875Z,5.85
2022-08-17T15:56:15.187Z,5.43
2022-08-17T15:58:44.451Z,5.68
2022-08-17T16:01:17.003Z,6.07
2022-08-17T16:04:04.213Z,5.55
2022-08-17T16:06:32.344Z,4.80
2022-08-17T16:09:00.710Z,5.47
2022-08-17T16:11:27.996Z,5.28
2022-08-17T16:13:56.147Z,5.03
2022-08-17T16:16:24.743Z,5.20
2022-08-17T16:18:53.684Z,7.28
2022-08-17T16:21:27.082Z,8.10
2022-08-17T16:24:05.133Z,5.55
2022-08-17T16:26:40.847Z,11.48
2022-08-17T16:29:08.394Z,6.88
2022-08-17T16:31:37.822Z,5.35
2022-08-17T16:34:16.970Z,5.35
2022-08-17T16:36:55.092Z,6.10
2022-08-17T16:39:29.544Z,5.28
2022-08-17T16:41:57.654Z,6.78
2022-08-17T16:44:27.796Z,5.30
2022-08-17T16:46:55.112Z,4.95
2022-08-17T16:49:36.238Z,7.10
2022-08-17T16:52:08.059Z,5.20
2022-08-17T16:54:38.567Z,17.30
2022-08-17T16:57:05.912Z,12.38
2022-08-17T16:59:41.138Z,14.25
2022-08-17T17:02:13.671Z,6.05
2022-08-17T17:04:48.411Z,6.40
2022-08-17T17:07:26.029Z,8.70
2022-08-17T17:09:56.071Z,7.85
2022-08-17T17:13:01.130Z,6.93
2022-08-17T17:15:13.111Z,79.88
2022-08-17T17:17:41.969Z,43.67
2022-08-17T17:20:23.147Z,18.85
2022-08-17T17:23:39.428Z,28.23
2022-08-17T17:26:34.598Z,24.45
2022-08-17T17:29:25.968Z,28.92
2022-08-17T17:32:17.296Z,41.28
2022-08-17T17:34:51.004Z,15.05
2022-08-17T17:37:34.834Z,12.15
2022-08-17T17:40:13.109Z,11.77
2022-08-17T17:42:42.473Z,7.45
2022-08-17T17:45:31.575Z,8.25
2022-08-17T17:47:58.954Z,7.22
2022-08-17T17:50:36.753Z,8.13
2022-08-17T17:53:12.933Z,7.10
2022-08-17T17:55:50.832Z,7.05
2022-08-17T17:58:42.937Z,8.05
2022-08-17T18:01:19.360Z,11.93
2022-08-17T18:04:15.671Z,13.35
2022-08-17T18:07:12.457Z,9.50
2022-08-17T18:10:01.120Z,15.93
2022-08-17T18:12:46.407Z,43.65
2022-08-17T18:15:36.561Z,53.25
2022-08-17T18:18:40.019Z,52.50
2022-08-17T18:21:19.623Z,42.97
2022-08-17T18:24:01.571Z,22.67
2022-08-17T18:26:56.672Z,21.98
2022-08-17T18:29:34.612Z,20.55
2022-08-17T18:32:26.814Z,22.60
2022-08-17T18:34:57.866Z,23.13
2022-08-17T18:37:43.201Z,26.05
2022-08-17T18:40:19.882Z,26.90
2022-08-17T18:43:00.499Z,19.85
2022-08-17T18:45:47.253Z,24.58
2022-08-17T18:48:28.706Z,28.05
2022-08-17T18:51:18.340Z,17.17
2022-08-17T18:53:46.352Z,19.73
2022-08-17T18:56:36.395Z,21.33
2022-08-17T18:59:12.253Z,16.58
2022-08-17T19:02:05.071Z,18.55
2022-08-17T19:05:11.312Z,25.08
2022-08-17T19:07:45.340Z,16.73
2022-08-17T19:10:22.034Z,15.13
2022-08-17T19:12:55.528Z,17.63
2022-08-17T19:15:36.226Z,16.35
2022-08-17T19:18:36.329Z,14.05
2022-08-17T19:21:24.472Z,15.18
2022-08-17T19:23:59.857Z,8.70
2022-08-17T19:26:54.010Z,21.77
2022-08-17T19:29:47.153Z,10.15
2022-08-17T19:32:17.820Z,12.50
2022-08-17T19:34:45.202Z,13.27
2022-08-17T19:37:33.241Z,13.00
2022-08-17T19:40:41.767Z,12.93
2022-08-17T19:43:23.715Z,17.48
2022-08-17T19:46:07.372Z,9.90
2022-08-17T19:49:13.047Z,12.63
2022-08-17T19:51:49.300Z,9.40
2022-08-17T19:54:25.178Z,8.15
2022-08-17T19:57:13.860Z,11.48
2022-08-17T20:00:11.232Z,8.30
2022-08-17T20:03:05.919Z,11.15
2022-08-17T20:06:11.567Z,9.38
2022-08-17T20:08:48.417Z,10.68
2022-08-17T20:11:28.512Z,9.05
2022-08-17T20:14:10.134Z,12.23
2022-08-17T20:16:37.442Z,8.95
2022-08-17T20:19:06.831Z,10.82
2022-08-17T20:21:59.255Z,12.35
2022-08-17T20:24:46.877Z,9.23
2022-08-17T20:27:31.581Z,13.73
2022-08-17T20:30:02.132Z,9.52
2022-08-17T20:32:35.806Z,10.57
2022-08-17T20:35:21.725Z,9.65
2022-08-17T20:38:09.037Z,9.35
2022-08-17T20:40:56.416Z,12.48
2022-08-17T20:43:32.998Z,33.15
2022-08-17T20:46:05.620Z,28.20
2022-08-17T20:48:39.710Z,23.33
2022-08-17T20:51:42.108Z,19.77
2022-08-17T20:54:31.687Z,18.35
2022-08-17T20:57:01.187Z,15.02
2022-08-17T20:59:30.664Z,15.55
2022-08-17T21:02:18.483Z,17.63
2022-08-17T21:05:01.022Z,11.55
2022-08-17T21:07:42.945Z,13.85
2022-08-17T21:10:23.751Z,13.30
2022-08-17T21:13:16.714Z,15.43
2022-08-17T21:15:55.068Z,14.93
2022-08-17T21:18:23.536Z,15.50
2022-08-17T21:21:14.064Z,15.32
2022-08-17T21:23:56.238Z,12.55
2022-08-17T21:26:50.491Z,13.05
2022-08-17T21:29:32.531Z,12.52
2022-08-17T21:32:05.311Z,14.52
2022-08-17T21:34:36.760Z,11.57
2022-08-17T21:37:30.481Z,11.75
2022-08-17T21:40:02.532Z,15.55
2022-08-17T21:42:34.798Z,13.35
2022-08-17T21:45:21.544Z,11.88
2022-08-17T21:47:51.396Z,12.82
2022-08-17T21:50:25.406Z,13.60
2022-08-17T21:52:54.769Z,16.38
2022-08-17T21:55:30.121Z,13.55
2022-08-17T21:58:13.518Z,14.88
2022-08-17T22:00:44.947Z,12.15
2022-08-17T22:03:24.592Z,14.13
2022-08-17T22:05:52.291Z,11.75
2022-08-17T22:08:22.835Z,11.38
2022-08-17T22:10:51.741Z,13.20
2022-08-17T22:13:23.436Z,11.30
2022-08-17T22:16:15.640Z,13.60
2022-08-17T22:18:54.904Z,11.80
2022-08-17T22:21:22.454Z,13.73
2022-08-17T22:24:05.392Z,12.57
2022-08-17T22:27:03.238Z,12.75
2022-08-17T22:29:58.422Z,17.25
2022-08-17T22:32:44.922Z,13.32
2022-08-17T22:35:31.654Z,14.10
2022-08-17T22:38:20.799Z,14.18
2022-08-17T22:40:54.954Z,16.33
2022-08-17T22:43:26.361Z,17.50
2022-08-17T22:45:57.709Z,22.88
2022-08-17T22:48:28.409Z,19.75
2022-08-17T22:51:14.546Z,17.17
2022-08-17T22:54:10.391Z,16.48
2022-08-17T22:56:57.328Z,16.02
2022-08-17T22:59:47.809Z,14.85
2022-08-17T23:02:28.298Z,15.63
2022-08-17T23:05:11.764Z,16.73
2022-08-17T23:07:40.090Z,17.10
2022-08-17T23:10:10.325Z,17.30
2022-08-17T23:12:41.129Z,15.65
2022-08-17T23:15:16.909Z,15.60
2022-08-17T23:17:45.383Z,14.88
2022-08-17T23:20:15.326Z,15.38
2022-08-17T23:22:51.288Z,14.30
2022-08-17T23:25:27.507Z,13.63
2022-08-17T23:27:55.582Z,15.35
2022-08-17T23:30:25.870Z,13.85
2022-08-17T23:32:54.677Z,13.40
2022-08-17T23:35:40.080Z,15.45
2022-08-17T23:38:12.577Z,15.15
2022-08-17T23:40:40.891Z,14.27
2022-08-17T23:43:23.709Z,13.93
2022-08-17T23:46:01.248Z,16.23
2022-08-17T23:48:35.678Z,14.82
2022-08-17T23:51:08.907Z,14.85
2022-08-17T23:53:39.203Z,14.77
2022-08-17T23:56:10.169Z,15.98
2022-08-17T23:58:43.585Z,16.17
